sensor_id;sensor_type;location;lat;lon;timestamp;P1;durP1;ratioP1;P2;durP2;ratioP2
75971;SDS011;64651;47.540;19.088;2023-11-21T00:04:57;21.70;;;8.35;;
75971;SDS011;64651;47.540;19.088;2023-11-21T00:09:59;20.52;;;10.02;;
75971;SDS011;64651;47.540;19.088;2023-11-21T00:15:01;22.73;;;10.23;;
75971;SDS011;64651;47.540;19.088;2023-11-21T00:20:05;21.90;;;9.45;;
75971;SDS011;64651;47.540;19.088;2023-11-21T00:25:09;19.53;;;9.30;;
75971;SDS011;64651;47.540;19.088;2023-11-21T00:30:12;22.75;;;8.73;;
75971;SDS011;64651;47.540;19.088;2023-11-21T00:35:14;21.35;;;8.98;;
75971;SDS011;64651;47.540;19.088;2023-11-21T00:40:17;22.30;;;9.50;;
75971;SDS011;64651;47.540;19.088;2023-11-21T00:45:23;25.02;;;10.10;;
75971;SDS011;64651;47.540;19.088;2023-11-21T00:50:25;24.50;;;10.77;;
75971;SDS011;64651;47.540;19.088;2023-11-21T00:55:27;20.08;;;10.18;;
75971;SDS011;64651;47.540;19.088;2023-11-21T01:00:31;23.33;;;10.77;;
75971;SDS011;64651;47.540;19.088;2023-11-21T01:05:34;22.07;;;10.53;;
75971;SDS011;64651;47.540;19.088;2023-11-21T01:10:37;15.40;;;6.97;;
75971;SDS011;64651;47.540;19.088;2023-11-21T01:15:39;18.23;;;7.80;;
75971;SDS011;64651;47.540;19.088;2023-11-21T01:20:41;18.75;;;8.18;;
75971;SDS011;64651;47.540;19.088;2023-11-21T01:25:43;16.37;;;6.97;;
75971;SDS011;64651;47.540;19.088;2023-11-21T01:30:46;16.60;;;6.60;;
75971;SDS011;64651;47.540;19.088;2023-11-21T01:35:48;16.80;;;6.60;;
75971;SDS011;64651;47.540;19.088;2023-11-21T01:40:50;14.80;;;6.27;;
75971;SDS011;64651;47.540;19.088;2023-11-21T01:45:55;16.00;;;6.87;;
75971;SDS011;64651;47.540;19.088;2023-11-21T01:50:58;15.30;;;6.82;;
75971;SDS011;64651;47.540;19.088;2023-11-21T01:56:00;14.50;;;7.17;;
75971;SDS011;64651;47.540;19.088;2023-11-21T02:01:03;15.43;;;7.20;;
75971;SDS011;64651;47.540;19.088;2023-11-21T02:06:05;15.23;;;7.50;;
75971;SDS011;64651;47.540;19.088;2023-11-21T02:11:08;17.42;;;7.55;;
75971;SDS011;64651;47.540;19.088;2023-11-21T02:16:11;18.37;;;7.22;;
75971;SDS011;64651;47.540;19.088;2023-11-21T02:21:14;16.47;;;7.20;;
75971;SDS011;64651;47.540;19.088;2023-11-21T02:26:17;17.98;;;7.87;;
75971;SDS011;64651;47.540;19.088;2023-11-21T02:31:19;18.10;;;7.60;;
75971;SDS011;64651;47.540;19.088;2023-11-21T02:36:21;17.12;;;7.50;;
75971;SDS011;64651;47.540;19.088;2023-11-21T02:41:23;15.88;;;7.25;;
75971;SDS011;64651;47.540;19.088;2023-11-21T02:46:25;28.63;;;9.77;;
75971;SDS011;64651;47.540;19.088;2023-11-21T02:51:28;17.10;;;7.82;;
75971;SDS011;64651;47.540;19.088;2023-11-21T02:56:31;17.40;;;7.40;;
75971;SDS011;64651;47.540;19.088;2023-11-21T03:01:33;19.50;;;7.97;;
75971;SDS011;64651;47.540;19.088;2023-11-21T03:06:36;15.52;;;7.28;;
75971;SDS011;64651;47.540;19.088;2023-11-21T03:11:38;16.37;;;7.83;;
75971;SDS011;64651;47.540;19.088;2023-11-21T03:16:40;19.50;;;8.30;;
75971;SDS011;64651;47.540;19.088;2023-11-21T03:21:43;17.97;;;7.77;;
75971;SDS011;64651;47.540;19.088;2023-11-21T03:26:45;14.63;;;7.07;;
75971;SDS011;64651;47.540;19.088;2023-11-21T03:31:48;15.63;;;7.18;;
75971;SDS011;64651;47.540;19.088;2023-11-21T03:36:50;16.93;;;7.20;;
75971;SDS011;64651;47.540;19.088;2023-11-21T03:41:53;17.27;;;7.32;;
75971;SDS011;64651;47.540;19.088;2023-11-21T03:46:55;22.30;;;7.70;;
75971;SDS011;64651;47.540;19.088;2023-11-21T03:51:57;23.98;;;11.12;;
75971;SDS011;64651;47.540;19.088;2023-11-21T03:56:59;28.60;;;12.73;;
75971;SDS011;64651;47.540;19.088;2023-11-21T04:02:02;27.80;;;13.40;;
75971;SDS011;64651;47.540;19.088;2023-11-21T04:07:05;28.73;;;14.13;;
75971;SDS011;64651;47.540;19.088;2023-11-21T04:12:07;25.60;;;12.53;;
75971;SDS011;64651;47.540;19.088;2023-11-21T04:17:13;27.75;;;13.05;;
75971;SDS011;64651;47.540;19.088;2023-11-21T04:22:15;24.02;;;11.45;;
75971;SDS011;64651;47.540;19.088;2023-11-21T04:27:17;25.40;;;11.80;;
75971;SDS011;64651;47.540;19.088;2023-11-21T04:32:19;27.15;;;13.10;;
75971;SDS011;64651;47.540;19.088;2023-11-21T04:37:22;26.97;;;12.93;;
75971;SDS011;64651;47.540;19.088;2023-11-21T04:42:24;26.80;;;12.80;;
75971;SDS011;64651;47.540;19.088;2023-11-21T04:47:26;28.95;;;14.10;;
75971;SDS011;64651;47.540;19.088;2023-11-21T04:52:29;26.70;;;13.30;;
75971;SDS011;64651;47.540;19.088;2023-11-21T04:57:31;30.35;;;13.98;;
75971;SDS011;64651;47.540;19.088;2023-11-21T05:02:33;27.50;;;14.13;;
75971;SDS011;64651;47.540;19.088;2023-11-21T05:07:40;25.52;;;13.07;;
75971;SDS011;64651;47.540;19.088;2023-11-21T05:12:43;28.10;;;14.07;;
75971;SDS011;64651;47.540;19.088;2023-11-21T05:17:45;28.10;;;13.37;;
75971;SDS011;64651;47.540;19.088;2023-11-21T05:22:51;34.28;;;13.65;;
75971;SDS011;64651;47.540;19.088;2023-11-21T05:27:53;21.83;;;11.37;;
75971;SDS011;64651;47.540;19.088;2023-11-21T05:32:56;26.52;;;12.77;;
75971;SDS011;64651;47.540;19.088;2023-11-21T05:37:58;26.95;;;12.85;;
75971;SDS011;64651;47.540;19.088;2023-11-21T05:43:01;26.57;;;12.40;;
75971;SDS011;64651;47.540;19.088;2023-11-21T05:48:03;25.20;;;13.52;;
75971;SDS011;64651;47.540;19.088;2023-11-21T05:53:06;29.70;;;14.40;;
75971;SDS011;64651;47.540;19.088;2023-11-21T05:58:08;25.02;;;12.32;;
75971;SDS011;64651;47.540;19.088;2023-11-21T06:03:11;27.50;;;12.45;;
75971;SDS011;64651;47.540;19.088;2023-11-21T06:08:14;21.87;;;11.60;;
75971;SDS011;64651;47.540;19.088;2023-11-21T06:13:18;23.75;;;12.20;;
75971;SDS011;64651;47.540;19.088;2023-11-21T06:18:26;21.77;;;11.40;;
75971;SDS011;64651;47.540;19.088;2023-11-21T06:23:28;27.25;;;12.82;;
75971;SDS011;64651;47.540;19.088;2023-11-21T06:28:30;29.48;;;14.77;;
75971;SDS011;64651;47.540;19.088;2023-11-21T06:33:32;35.97;;;16.83;;
75971;SDS011;64651;47.540;19.088;2023-11-21T06:38:35;32.63;;;16.92;;
75971;SDS011;64651;47.540;19.088;2023-11-21T06:43:37;33.87;;;18.57;;
75971;SDS011;64651;47.540;19.088;2023-11-21T06:48:40;31.02;;;14.93;;
75971;SDS011;64651;47.540;19.088;2023-11-21T06:53:44;30.37;;;14.82;;
75971;SDS011;64651;47.540;19.088;2023-11-21T06:58:46;28.77;;;15.10;;
75971;SDS011;64651;47.540;19.088;2023-11-21T07:03:49;29.05;;;14.70;;
75971;SDS011;64651;47.540;19.088;2023-11-21T07:08:52;26.70;;;13.47;;
75971;SDS011;64651;47.540;19.088;2023-11-21T07:13:54;25.10;;;12.10;;
75971;SDS011;64651;47.540;19.088;2023-11-21T07:18:56;26.12;;;10.55;;
75971;SDS011;64651;47.540;19.088;2023-11-21T07:24:02;23.20;;;10.87;;
75971;SDS011;64651;47.540;19.088;2023-11-21T07:29:06;29.40;;;12.48;;
75971;SDS011;64651;47.540;19.088;2023-11-21T07:34:08;21.40;;;10.83;;
75971;SDS011;64651;47.540;19.088;2023-11-21T07:39:10;23.38;;;10.68;;
75971;SDS011;64651;47.540;19.088;2023-11-21T07:44:12;22.77;;;11.00;;
75971;SDS011;64651;47.540;19.088;2023-11-21T07:49:15;29.30;;;15.67;;
75971;SDS011;64651;47.540;19.088;2023-11-21T07:54:22;27.87;;;13.40;;
75971;SDS011;64651;47.540;19.088;2023-11-21T07:59:24;26.30;;;12.43;;
75971;SDS011;64651;47.540;19.088;2023-11-21T08:04:26;24.95;;;13.32;;
75971;SDS011;64651;47.540;19.088;2023-11-21T08:09:29;32.65;;;13.80;;
75971;SDS011;64651;47.540;19.088;2023-11-21T08:14:33;27.67;;;15.10;;
75971;SDS011;64651;47.540;19.088;2023-11-21T08:19:35;27.13;;;16.42;;
75971;SDS011;64651;47.540;19.088;2023-11-21T08:24:38;27.47;;;14.50;;
75971;SDS011;64651;47.540;19.088;2023-11-21T08:29:40;31.08;;;13.70;;
75971;SDS011;64651;47.540;19.088;2023-11-21T08:34:42;24.08;;;13.38;;
75971;SDS011;64651;47.540;19.088;2023-11-21T08:39:47;20.87;;;10.40;;
75971;SDS011;64651;47.540;19.088;2023-11-21T08:44:50;21.62;;;10.50;;
75971;SDS011;64651;47.540;19.088;2023-11-21T08:49:55;20.73;;;10.00;;
75971;SDS011;64651;47.540;19.088;2023-11-21T08:54:57;19.92;;;9.50;;
75971;SDS011;64651;47.540;19.088;2023-11-21T09:00:04;17.00;;;7.45;;
75971;SDS011;64651;47.540;19.088;2023-11-21T09:05:14;15.20;;;6.03;;
75971;SDS011;64651;47.540;19.088;2023-11-21T09:10:18;14.48;;;6.25;;
75971;SDS011;64651;47.540;19.088;2023-11-21T09:15:21;14.87;;;5.50;;
75971;SDS011;64651;47.540;19.088;2023-11-21T09:20:23;13.62;;;5.57;;
75971;SDS011;64651;47.540;19.088;2023-11-21T09:25:25;13.82;;;5.25;;
75971;SDS011;64651;47.540;19.088;2023-11-21T09:30:28;14.20;;;4.47;;
75971;SDS011;64651;47.540;19.088;2023-11-21T09:35:30;14.18;;;4.30;;
75971;SDS011;64651;47.540;19.088;2023-11-21T09:40:32;10.33;;;3.73;;
75971;SDS011;64651;47.540;19.088;2023-11-21T09:45:35;13.60;;;3.95;;
75971;SDS011;64651;47.540;19.088;2023-11-21T09:50:37;11.75;;;4.12;;
75971;SDS011;64651;47.540;19.088;2023-11-21T09:55:43;10.67;;;4.23;;
75971;SDS011;64651;47.540;19.088;2023-11-21T10:00:47;11.98;;;4.40;;
75971;SDS011;64651;47.540;19.088;2023-11-21T10:05:51;12.70;;;4.90;;
75971;SDS011;64651;47.540;19.088;2023-11-21T10:10:55;11.98;;;4.53;;
75971;SDS011;64651;47.540;19.088;2023-11-21T10:15:58;14.00;;;5.18;;
75971;SDS011;64651;47.540;19.088;2023-11-21T10:21:01;13.23;;;5.87;;
75971;SDS011;64651;47.540;19.088;2023-11-21T10:26:05;14.80;;;6.43;;
75971;SDS011;64651;47.540;19.088;2023-11-21T10:31:21;11.80;;;3.00;;
75971;SDS011;64651;47.540;19.088;2023-11-21T10:36:28;10.43;;;3.17;;
75971;SDS011;64651;47.540;19.088;2023-11-21T10:41:30;12.20;;;3.10;;
75971;SDS011;64651;47.540;19.088;2023-11-21T10:46:32;10.47;;;3.40;;
75971;SDS011;64651;47.540;19.088;2023-11-21T10:51:35;10.35;;;3.28;;
75971;SDS011;64651;47.540;19.088;2023-11-21T10:56:38;11.83;;;3.30;;
75971;SDS011;64651;47.540;19.088;2023-11-21T11:01:44;9.18;;;3.22;;
75971;SDS011;64651;47.540;19.088;2023-11-21T11:06:51;12.68;;;3.62;;
75971;SDS011;64651;47.540;19.088;2023-11-21T11:11:56;15.40;;;3.70;;
75971;SDS011;64651;47.540;19.088;2023-11-21T11:16:58;11.50;;;4.05;;
75971;SDS011;64651;47.540;19.088;2023-11-21T11:27:15;19.33;;;8.00;;
75971;SDS011;64651;47.540;19.088;2023-11-21T11:32:36;21.35;;;9.15;;
75971;SDS011;64651;47.540;19.088;2023-11-21T11:37:51;18.80;;;9.10;;
75971;SDS011;64651;47.540;19.088;2023-11-21T11:43:00;21.27;;;8.63;;
75971;SDS011;64651;47.540;19.088;2023-11-21T11:48:06;19.37;;;8.50;;
75971;SDS011;64651;47.540;19.088;2023-11-21T11:53:14;22.17;;;8.73;;
75971;SDS011;64651;47.540;19.088;2023-11-21T11:58:17;20.00;;;8.32;;
75971;SDS011;64651;47.540;19.088;2023-11-21T12:03:19;16.73;;;7.23;;
75971;SDS011;64651;47.540;19.088;2023-11-21T12:08:22;19.23;;;7.90;;
75971;SDS011;64651;47.540;19.088;2023-11-21T12:13:25;16.80;;;7.80;;
75971;SDS011;64651;47.540;19.088;2023-11-21T12:18:30;17.45;;;7.20;;
75971;SDS011;64651;47.540;19.088;2023-11-21T12:23:32;19.40;;;7.03;;
75971;SDS011;64651;47.540;19.088;2023-11-21T12:28:36;15.03;;;6.70;;
75971;SDS011;64651;47.540;19.088;2023-11-21T12:33:38;18.40;;;6.70;;
75971;SDS011;64651;47.540;19.088;2023-11-21T12:38:41;17.73;;;7.20;;
75971;SDS011;64651;47.540;19.088;2023-11-21T12:43:43;16.10;;;7.32;;
75971;SDS011;64651;47.540;19.088;2023-11-21T12:48:46;15.38;;;7.20;;
75971;SDS011;64651;47.540;19.088;2023-11-21T12:53:48;15.87;;;7.20;;
75971;SDS011;64651;47.540;19.088;2023-11-21T12:58:53;16.55;;;7.25;;
75971;SDS011;64651;47.540;19.088;2023-11-21T13:03:57;18.20;;;8.23;;
75971;SDS011;64651;47.540;19.088;2023-11-21T13:09:04;15.82;;;7.43;;
75971;SDS011;64651;47.540;19.088;2023-11-21T13:14:06;20.60;;;7.37;;
75971;SDS011;64651;47.540;19.088;2023-11-21T13:19:09;19.97;;;8.57;;
75971;SDS011;64651;47.540;19.088;2023-11-21T13:24:11;18.10;;;7.75;;
75971;SDS011;64651;47.540;19.088;2023-11-21T13:29:13;15.27;;;6.87;;
75971;SDS011;64651;47.540;19.088;2023-11-21T13:34:15;16.52;;;6.97;;
75971;SDS011;64651;47.540;19.088;2023-11-21T13:39:25;11.77;;;4.15;;
75971;SDS011;64651;47.540;19.088;2023-11-21T13:44:31;11.03;;;4.20;;
75971;SDS011;64651;47.540;19.088;2023-11-21T13:49:40;9.98;;;4.12;;
75971;SDS011;64651;47.540;19.088;2023-11-21T13:54:44;10.67;;;4.07;;
75971;SDS011;64651;47.540;19.088;2023-11-21T13:59:46;13.73;;;3.92;;
75971;SDS011;64651;47.540;19.088;2023-11-21T14:04:48;10.38;;;4.15;;
75971;SDS011;64651;47.540;19.088;2023-11-21T14:09:58;11.87;;;4.47;;
75971;SDS011;64651;47.540;19.088;2023-11-21T14:15:00;9.93;;;4.10;;
75971;SDS011;64651;47.540;19.088;2023-11-21T14:20:05;12.73;;;3.80;;
75971;SDS011;64651;47.540;19.088;2023-11-21T14:25:09;10.18;;;3.30;;
75971;SDS011;64651;47.540;19.088;2023-11-21T14:30:13;8.00;;;3.20;;
75971;SDS011;64651;47.540;19.088;2023-11-21T14:35:20;8.83;;;2.50;;
75971;SDS011;64651;47.540;19.088;2023-11-21T14:40:24;9.50;;;2.50;;
75971;SDS011;64651;47.540;19.088;2023-11-21T14:45:27;8.60;;;2.60;;
75971;SDS011;64651;47.540;19.088;2023-11-21T14:50:31;9.25;;;3.10;;
75971;SDS011;64651;47.540;19.088;2023-11-21T14:55:55;9.65;;;3.00;;
75971;SDS011;64651;47.540;19.088;2023-11-21T15:01:01;7.97;;;2.77;;
75971;SDS011;64651;47.540;19.088;2023-11-21T15:06:04;12.02;;;3.85;;
75971;SDS011;64651;47.540;19.088;2023-11-21T15:11:26;10.53;;;4.33;;
75971;SDS011;64651;47.540;19.088;2023-11-21T15:16:33;14.80;;;4.60;;
75971;SDS011;64651;47.540;19.088;2023-11-21T15:21:40;11.63;;;4.22;;
75971;SDS011;64651;47.540;19.088;2023-11-21T15:26:42;12.27;;;4.27;;
75971;SDS011;64651;47.540;19.088;2023-11-21T15:31:44;11.65;;;4.12;;
75971;SDS011;64651;47.540;19.088;2023-11-21T15:36:50;13.43;;;5.60;;
75971;SDS011;64651;47.540;19.088;2023-11-21T15:41:58;14.43;;;5.62;;
75971;SDS011;64651;47.540;19.088;2023-11-21T15:47:01;16.70;;;6.22;;
75971;SDS011;64651;47.540;19.088;2023-11-21T15:52:06;15.63;;;7.07;;
75971;SDS011;64651;47.540;19.088;2023-11-21T15:57:12;17.40;;;7.43;;
75971;SDS011;64651;47.540;19.088;2023-11-21T16:02:15;17.17;;;6.93;;
75971;SDS011;64651;47.540;19.088;2023-11-21T16:07:18;15.25;;;6.25;;
75971;SDS011;64651;47.540;19.088;2023-11-21T16:12:20;15.30;;;5.68;;
75971;SDS011;64651;47.540;19.088;2023-11-21T16:17:24;13.93;;;5.40;;
75971;SDS011;64651;47.540;19.088;2023-11-21T16:22:26;13.80;;;5.55;;
75971;SDS011;64651;47.540;19.088;2023-11-21T16:27:30;13.97;;;5.13;;
75971;SDS011;64651;47.540;19.088;2023-11-21T16:32:32;14.60;;;5.30;;
75971;SDS011;64651;47.540;19.088;2023-11-21T16:37:36;14.07;;;5.15;;
75971;SDS011;64651;47.540;19.088;2023-11-21T16:42:39;14.53;;;5.50;;
75971;SDS011;64651;47.540;19.088;2023-11-21T16:47:44;14.48;;;5.25;;
75971;SDS011;64651;47.540;19.088;2023-11-21T16:52:47;12.90;;;5.90;;
75971;SDS011;64651;47.540;19.088;2023-11-21T16:57:49;17.48;;;5.00;;
75971;SDS011;64651;47.540;19.088;2023-11-21T17:02:53;13.15;;;5.50;;
75971;SDS011;64651;47.540;19.088;2023-11-21T17:07:56;12.07;;;5.23;;
75971;SDS011;64651;47.540;19.088;2023-11-21T17:12:58;14.25;;;5.60;;
75971;SDS011;64651;47.540;19.088;2023-11-21T17:18:03;16.20;;;7.00;;
75971;SDS011;64651;47.540;19.088;2023-11-21T17:23:08;16.77;;;6.18;;
75971;SDS011;64651;47.540;19.088;2023-11-21T17:28:12;16.70;;;6.07;;
75971;SDS011;64651;47.540;19.088;2023-11-21T17:33:14;17.83;;;6.93;;
75971;SDS011;64651;47.540;19.088;2023-11-21T17:38:17;17.12;;;7.22;;
75971;SDS011;64651;47.540;19.088;2023-11-21T17:43:19;18.00;;;6.83;;
75971;SDS011;64651;47.540;19.088;2023-11-21T17:48:21;20.35;;;7.78;;
75971;SDS011;64651;47.540;19.088;2023-11-21T17:53:24;19.65;;;8.18;;
75971;SDS011;64651;47.540;19.088;2023-11-21T17:58:26;23.23;;;9.90;;
75971;SDS011;64651;47.540;19.088;2023-11-21T18:03:29;23.62;;;11.98;;
75971;SDS011;64651;47.540;19.088;2023-11-21T18:08:32;23.97;;;11.97;;
75971;SDS011;64651;47.540;19.088;2023-11-21T18:13:34;25.55;;;11.27;;
75971;SDS011;64651;47.540;19.088;2023-11-21T18:18:36;26.92;;;12.10;;
75971;SDS011;64651;47.540;19.088;2023-11-21T18:23:44;23.57;;;11.37;;
75971;SDS011;64651;47.540;19.088;2023-11-21T18:28:47;23.73;;;11.63;;
75971;SDS011;64651;47.540;19.088;2023-11-21T18:33:49;28.10;;;12.40;;
75971;SDS011;64651;47.540;19.088;2023-11-21T18:38:51;28.52;;;11.57;;
75971;SDS011;64651;47.540;19.088;2023-11-21T18:43:53;28.23;;;12.43;;
75971;SDS011;64651;47.540;19.088;2023-11-21T18:48:56;27.33;;;12.50;;
75971;SDS011;64651;47.540;19.088;2023-11-21T18:54:00;29.05;;;13.45;;
75971;SDS011;64651;47.540;19.088;2023-11-21T18:59:02;26.83;;;13.03;;
75971;SDS011;64651;47.540;19.088;2023-11-21T19:04:07;25.00;;;12.82;;
75971;SDS011;64651;47.540;19.088;2023-11-21T19:09:09;27.98;;;13.10;;
75971;SDS011;64651;47.540;19.088;2023-11-21T19:14:13;29.23;;;13.53;;
75971;SDS011;64651;47.540;19.088;2023-11-21T19:19:16;25.55;;;12.93;;
75971;SDS011;64651;47.540;19.088;2023-11-21T19:24:19;29.40;;;13.97;;
75971;SDS011;64651;47.540;19.088;2023-11-21T19:29:21;29.98;;;13.13;;
75971;SDS011;64651;47.540;19.088;2023-11-21T19:34:24;29.33;;;13.55;;
75971;SDS011;64651;47.540;19.088;2023-11-21T19:39:27;27.67;;;13.17;;
75971;SDS011;64651;47.540;19.088;2023-11-21T19:44:29;31.77;;;14.98;;
75971;SDS011;64651;47.540;19.088;2023-11-21T19:49:32;30.27;;;14.63;;
75971;SDS011;64651;47.540;19.088;2023-11-21T19:54:35;27.90;;;13.55;;
75971;SDS011;64651;47.540;19.088;2023-11-21T19:59:38;29.48;;;13.65;;
75971;SDS011;64651;47.540;19.088;2023-11-21T20:04:46;28.27;;;13.80;;
75971;SDS011;64651;47.540;19.088;2023-11-21T20:09:48;29.30;;;14.57;;
75971;SDS011;64651;47.540;19.088;2023-11-21T20:14:51;29.47;;;14.57;;
75971;SDS011;64651;47.540;19.088;2023-11-21T20:19:54;31.87;;;14.32;;
75971;SDS011;64651;47.540;19.088;2023-11-21T20:24:56;30.60;;;15.23;;
75971;SDS011;64651;47.540;19.088;2023-11-21T20:29:58;32.07;;;14.13;;
75971;SDS011;64651;47.540;19.088;2023-11-21T20:35:03;33.13;;;14.45;;
75971;SDS011;64651;47.540;19.088;2023-11-21T20:40:07;29.73;;;14.87;;
75971;SDS011;64651;47.540;19.088;2023-11-21T20:45:10;29.55;;;14.48;;
75971;SDS011;64651;47.540;19.088;2023-11-21T20:50:12;29.15;;;14.95;;
75971;SDS011;64651;47.540;19.088;2023-11-21T20:55:15;31.33;;;14.33;;
75971;SDS011;64651;47.540;19.088;2023-11-21T21:00:18;29.45;;;14.50;;
75971;SDS011;64651;47.540;19.088;2023-11-21T21:05:21;28.47;;;14.43;;
75971;SDS011;64651;47.540;19.088;2023-11-21T21:10:24;29.52;;;14.65;;
75971;SDS011;64651;47.540;19.088;2023-11-21T21:15:30;32.13;;;14.30;;
75971;SDS011;64651;47.540;19.088;2023-11-21T21:20:32;34.13;;;14.93;;
75971;SDS011;64651;47.540;19.088;2023-11-21T21:25:34;33.25;;;15.38;;
75971;SDS011;64651;47.540;19.088;2023-11-21T21:30:36;30.63;;;14.30;;
75971;SDS011;64651;47.540;19.088;2023-11-21T21:35:41;29.25;;;14.63;;
75971;SDS011;64651;47.540;19.088;2023-11-21T21:40:43;32.45;;;15.65;;
75971;SDS011;64651;47.540;19.088;2023-11-21T21:45:45;31.90;;;15.13;;
75971;SDS011;64651;47.540;19.088;2023-11-21T21:50:48;36.75;;;17.23;;
75971;SDS011;64651;47.540;19.088;2023-11-21T21:55:52;48.77;;;23.27;;
75971;SDS011;64651;47.540;19.088;2023-11-21T22:00:55;39.13;;;18.98;;
75971;SDS011;64651;47.540;19.088;2023-11-21T22:05:59;39.75;;;18.67;;
75971;SDS011;64651;47.540;19.088;2023-11-21T22:11:02;39.50;;;18.30;;
75971;SDS011;64651;47.540;19.088;2023-11-21T22:16:07;34.35;;;16.20;;
75971;SDS011;64651;47.540;19.088;2023-11-21T22:21:14;32.23;;;15.37;;
75971;SDS011;64651;47.540;19.088;2023-11-21T22:26:20;35.00;;;16.02;;
75971;SDS011;64651;47.540;19.088;2023-11-21T22:31:22;35.72;;;16.65;;
75971;SDS011;64651;47.540;19.088;2023-11-21T22:36:24;33.97;;;16.07;;
75971;SDS011;64651;47.540;19.088;2023-11-21T22:41:28;32.92;;;15.57;;
75971;SDS011;64651;47.540;19.088;2023-11-21T22:46:30;31.10;;;14.57;;
75971;SDS011;64651;47.540;19.088;2023-11-21T22:51:34;29.50;;;14.57;;
75971;SDS011;64651;47.540;19.088;2023-11-21T22:56:37;29.48;;;13.52;;
75971;SDS011;64651;47.540;19.088;2023-11-21T23:01:39;27.63;;;12.93;;
75971;SDS011;64651;47.540;19.088;2023-11-21T23:06:42;35.28;;;14.23;;
75971;SDS011;64651;47.540;19.088;2023-11-21T23:11:47;29.60;;;13.87;;
75971;SDS011;64651;47.540;19.088;2023-11-21T23:16:50;30.37;;;14.15;;
75971;SDS011;64651;47.540;19.088;2023-11-21T23:21:54;27.25;;;13.23;;
75971;SDS011;64651;47.540;19.088;2023-11-21T23:26:56;27.70;;;12.17;;
75971;SDS011;64651;47.540;19.088;2023-11-21T23:31:58;28.50;;;14.00;;
75971;SDS011;64651;47.540;19.088;2023-11-21T23:37:01;27.87;;;13.13;;
75971;SDS011;64651;47.540;19.088;2023-11-21T23:42:04;27.92;;;13.50;;
75971;SDS011;64651;47.540;19.088;2023-11-21T23:47:07;31.12;;;13.75;;
75971;SDS011;64651;47.540;19.088;2023-11-21T23:52:09;30.73;;;13.17;;
75971;SDS011;64651;47.540;19.088;2023-11-21T23:57:11;30.35;;;13.60;;
